Time;durP1;ratioP1;P1;durP2;ratioP2;P2;SDS_P1;SDS_P2;PMS_P1;PMS_P2;Temp;Humidity;BMP_temperature;BMP_pressure;BME280_temperature;BME280_humidity;BME280_pressure;Samples;Min_cycle;Max_cycle;Signal;HPM_P1;HPM_P2
2021/03/19 00:00:42;;;;;;;11.33;8.43;;;1.90;94.40;;;;;;4998780;28;20227;-85
2021/03/19 00:03:08;;;;;;;10.93;8.07;;;1.90;94.40;;;;;;4999202;28;20242;-85
2021/03/19 00:05:36;;;;;;;12.23;8.60;;;1.90;94.40;;;;;;4983728;28;20234;-85
2021/03/19 00:08:02;;;;;;;14.07;8.37;;;1.90;94.40;;;;;;5001973;28;20240;-84
2021/03/19 00:10:31;;;;;;;11.60;8.60;;;1.90;94.40;;;;;;5002403;28;20201;-84
2021/03/19 00:13:01;;;;;;;12.83;9.23;;;1.90;94.40;;;;;;5001310;28;20230;-84
2021/03/19 00:15:29;;;;;;;13.93;8.97;;;2.00;94.50;;;;;;5000851;28;20306;-84
2021/03/19 00:17:55;;;;;;;11.50;8.27;;;2.00;94.50;;;;;;5002109;28;20226;-84
2021/03/19 00:20:22;;;;;;;12.67;8.47;;;2.10;94.50;;;;;;4998073;28;20581;-84
2021/03/19 00:22:49;;;;;;;14.43;9.50;;;2.10;94.50;;;;;;4980066;28;20242;-85
2021/03/19 00:25:16;;;;;;;13.90;9.47;;;2.00;94.50;;;;;;4986147;28;20295;-85
2021/03/19 00:27:42;;;;;;;12.97;9.63;;;2.00;94.40;;;;;;4994610;28;20593;-85
2021/03/19 00:30:11;;;;;;;11.43;8.30;;;2.00;94.40;;;;;;4998885;28;20274;-85
2021/03/19 00:32:39;;;;;;;10.87;8.90;;;2.00;94.40;;;;;;4998620;28;20206;-85
2021/03/19 00:35:07;;;;;;;11.90;9.13;;;1.90;94.50;;;;;;4997750;28;20203;-84
2021/03/19 00:40:56;;;;;;;12.57;8.57;;;1.70;95.40;;;;;;4995144;28;20267;-85
2021/03/19 00:43:24;;;;;;;13.07;9.00;;;1.70;95.70;;;;;;4978116;28;20234;-85
2021/03/19 00:45:51;;;;;;;12.03;8.57;;;1.80;95.70;;;;;;4979317;28;20208;-85
2021/03/19 00:48:17;;;;;;;13.83;9.60;;;1.80;95.70;;;;;;4960439;28;20233;-85
2021/03/19 00:50:44;;;;;;;13.27;9.53;;;1.90;95.20;;;;;;4978835;28;20294;-85
2021/03/19 00:53:11;;;;;;;14.00;9.77;;;1.90;94.40;;;;;;4992758;28;20225;-86
2021/03/19 00:55:38;;;;;;;11.90;9.43;;;1.80;94.40;;;;;;4978673;28;20206;-85
2021/03/19 00:58:05;;;;;;;13.77;9.47;;;1.70;94.80;;;;;;4977254;28;20233;-85
2021/03/19 01:00:34;;;;;;;13.83;9.73;;;1.60;95.20;;;;;;4978572;28;20286;-85
2021/03/19 01:03:00;;;;;;;12.73;9.47;;;1.60;95.10;;;;;;4990563;28;20233;-85
2021/03/19 01:05:29;;;;;;;14.83;10.40;;;1.60;95.10;;;;;;4995969;28;20227;-85
2021/03/19 01:07:56;;;;;;;13.10;9.53;;;1.60;94.90;;;;;;4999616;28;20288;-85
2021/03/19 01:10:26;;;;;;;13.33;10.07;;;1.50;95.20;;;;;;4998292;28;20203;-86
2021/03/19 01:12:53;;;;;;;14.13;9.87;;;1.60;95.30;;;;;;4999207;28;20277;-85
2021/03/19 01:15:20;;;;;;;12.80;10.03;;;1.70;95.40;;;;;;4981731;28;20287;-85
2021/03/19 01:17:47;;;;;;;14.23;10.00;;;1.70;95.20;;;;;;4965445;28;20235;-85
2021/03/19 01:20:15;;;;;;;14.70;10.27;;;1.70;95.20;;;;;;4996318;28;20234;-84
2021/03/19 01:22:41;;;;;;;13.67;10.03;;;1.70;95.60;;;;;;4984183;28;20212;-85
2021/03/19 01:25:11;;;;;;;14.23;10.20;;;1.90;95.70;;;;;;4992470;28;20213;-85
2021/03/19 01:30:54;;;;;;;13.77;9.47;;;1.90;94.70;;;;;;4996539;28;20203;-85
2021/03/19 01:33:21;;;;;;;12.90;9.70;;;1.90;94.40;;;;;;4995598;28;20697;-85
2021/03/19 01:35:47;;;;;;;13.13;10.40;;;1.80;94.40;;;;;;4992987;28;20203;-85
2021/03/19 01:38:14;;;;;;;12.53;9.53;;;1.90;94.70;;;;;;4993993;28;20297;-85
2021/03/19 01:40:43;;;;;;;13.67;9.43;;;1.80;94.40;;;;;;4996230;28;20235;-85
2021/03/19 01:43:11;;;;;;;13.80;9.67;;;1.80;94.90;;;;;;4995817;28;20577;-85
2021/03/19 01:46:11;;;;;;;14.27;9.83;;;1.80;94.70;;;;;;4995882;28;20233;-85
2021/03/19 01:49:15;;;;;;;14.57;10.77;;;1.80;94.40;;;;;;4991636;28;20249;-86
2021/03/19 01:52:18;;;;;;;13.50;10.03;;;1.70;94.40;;;;;;4996412;28;20664;-85
2021/03/19 01:55:22;;;;;;;14.37;10.03;;;1.70;94.40;;;;;;4993838;28;20232;-85
2021/03/19 01:58:26;;;;;;;15.03;9.87;;;1.80;94.40;;;;;;4994049;28;20588;-85
2021/03/19 02:01:29;;;;;;;15.10;9.83;;;1.60;94.40;;;;;;4983323;28;20253;-84
2021/03/19 02:04:33;;;;;;;17.73;11.33;;;1.70;94.70;;;;;;4985770;28;20313;-85
2021/03/19 02:07:36;;;;;;;16.20;10.37;;;1.70;94.40;;;;;;4976562;28;20210;-85
2021/03/19 02:10:40;;;;;;;15.60;10.43;;;1.60;94.40;;;;;;4976043;28;20286;-85
2021/03/19 02:13:44;;;;;;;14.93;10.27;;;1.70;94.50;;;;;;4975564;28;20234;-85
2021/03/19 02:16:48;;;;;;;15.87;10.80;;;1.70;94.40;;;;;;4977247;28;20237;-85
2021/03/19 02:20:00;;;;;;;17.20;10.67;;;1.70;94.00;;;;;;4976406;28;20234;-85
2021/03/19 02:23:03;;;;;;;16.50;10.70;;;1.60;94.40;;;;;;4930183;28;20338;-86
2021/03/19 02:26:07;;;;;;;16.60;10.53;;;1.80;93.60;;;;;;4978036;28;20207;-85
2021/03/19 02:29:11;;;;;;;15.20;10.43;;;1.80;93.00;;;;;;4987557;28;20226;-85
2021/03/19 02:31:58;;;;;;;17.10;10.47;;;1.70;93.60;;;;;;4991654;28;20635;-85
2021/03/19 02:34:28;;;;;;;15.83;10.43;;;1.70;93.50;;;;;;4981530;28;20243;-85
2021/03/19 02:36:55;;;;;;;17.67;10.90;;;1.80;93.30;;;;;;4982931;28;20212;-85
2021/03/19 02:39:21;;;;;;;16.40;11.10;;;1.80;93.10;;;;;;4996041;28;20264;-85
2021/03/19 02:41:48;;;;;;;17.17;11.57;;;1.80;93.50;;;;;;5001511;28;20201;-85
2021/03/19 02:44:14;;;;;;;15.27;10.93;;;1.70;93.40;;;;;;5001345;28;20244;-85
2021/03/19 02:46:41;;;;;;;15.27;11.10;;;1.80;93.80;;;;;;4997478;28;20215;-85
2021/03/19 02:49:08;;;;;;;13.27;9.97;;;1.80;93.60;;;;;;4979903;28;20322;-85
2021/03/19 02:51:34;;;;;;;14.47;9.70;;;1.90;93.10;;;;;;4995967;28;20207;-85
2021/03/19 02:54:01;;;;;;;15.33;10.10;;;1.90;92.80;;;;;;4997756;28;20227;-85
2021/03/19 02:56:28;;;;;;;15.37;10.40;;;1.90;92.50;;;;;;4965645;28;20208;-87
2021/03/19 02:58:55;;;;;;;15.17;9.87;;;1.90;92.50;;;;;;4996936;28;20646;-85
2021/03/19 03:04:44;;;;;;;14.93;10.13;;;2.00;92.30;;;;;;4996284;28;20297;-85
2021/03/19 03:07:20;;;;;;;13.93;9.80;;;2.10;92.10;;;;;;4996270;28;20242;-85
2021/03/19 03:09:46;;;;;;;15.07;9.77;;;2.10;91.80;;;;;;4964369;28;20659;-85
2021/03/19 03:12:13;;;;;;;14.17;9.97;;;2.10;91.70;;;;;;4990531;28;20294;-85
2021/03/19 03:14:39;;;;;;;15.27;10.33;;;2.00;91.80;;;;;;4981141;28;20243;-85
2021/03/19 03:17:06;;;;;;;13.47;9.80;;;2.00;92.10;;;;;;4986686;28;20274;-85
2021/03/19 03:19:32;;;;;;;12.67;9.57;;;2.00;92.20;;;;;;4998037;28;20673;-85
2021/03/19 03:22:00;;;;;;;13.60;9.00;;;2.00;91.80;;;;;;4995885;28;20191;-85
2021/03/19 03:24:28;;;;;;;12.27;9.00;;;2.00;91.80;;;;;;4985623;28;20238;-85
2021/03/19 03:26:54;;;;;;;15.07;9.47;;;2.00;91.80;;;;;;4978935;28;20299;-85
2021/03/19 03:29:22;;;;;;;12.33;8.80;;;2.00;91.50;;;;;;4981811;28;20224;-85
2021/03/19 03:31:49;;;;;;;14.87;9.73;;;1.90;91.40;;;;;;4983181;28;20214;-85
2021/03/19 03:34:16;;;;;;;14.33;10.07;;;1.90;91.30;;;;;;4983622;28;20238;-84
2021/03/19 03:36:43;;;;;;;11.80;8.87;;;1.90;91.70;;;;;;4999400;28;20203;-84
2021/03/19 03:39:12;;;;;;;12.23;9.17;;;1.80;92.00;;;;;;4996004;28;20562;-85
2021/03/19 03:41:40;;;;;;;13.30;9.40;;;1.80;92.00;;;;;;4992840;28;20227;-85
2021/03/19 03:44:08;;;;;;;14.73;9.60;;;1.80;92.40;;;;;;4981472;28;20327;-85
2021/03/19 03:46:34;;;;;;;14.87;9.37;;;1.80;92.40;;;;;;4982444;28;20218;-85
2021/03/19 03:49:01;;;;;;;14.03;8.63;;;1.90;92.20;;;;;;4982766;28;20223;-85
2021/03/19 03:51:29;;;;;;;13.17;9.77;;;1.90;91.70;;;;;;4997915;28;20299;-85
2021/03/19 03:53:57;;;;;;;12.83;9.57;;;1.90;91.70;;;;;;4998017;28;20231;-84
2021/03/19 03:56:25;;;;;;;12.23;9.20;;;1.80;92.00;;;;;;4999701;28;20203;-85
2021/03/19 03:58:54;;;;;;;13.57;9.30;;;1.90;92.10;;;;;;4999606;28;20318;-85
2021/03/19 04:01:21;;;;;;;13.90;9.47;;;1.80;92.00;;;;;;4998659;28;20229;-85
2021/03/19 04:03:48;;;;;;;11.80;8.33;;;1.90;91.70;;;;;;4998738;28;20235;-85
2021/03/19 04:06:14;;;;;;;14.03;9.93;;;1.90;91.80;;;;;;4986830;28;20212;-85
2021/03/19 04:08:41;;;;;;;14.50;9.30;;;1.90;92.00;;;;;;4978525;28;20318;-85
2021/03/19 04:11:11;;;;;;;13.03;9.33;;;2.00;91.80;;;;;;4979022;28;20210;-85
2021/03/19 04:13:39;;;;;;;13.53;9.93;;;1.80;91.70;;;;;;4978892;28;20232;-85
2021/03/19 04:16:06;;;;;;;15.77;10.60;;;1.80;92.20;;;;;;4962227;28;20660;-85
2021/03/19 04:18:33;;;;;;;16.63;10.20;;;1.70;92.40;;;;;;4979193;28;20371;-85
2021/03/19 04:21:01;;;;;;;13.67;9.30;;;1.80;92.40;;;;;;4995616;28;20232;-85
2021/03/19 04:23:29;;;;;;;12.33;9.60;;;1.80;92.60;;;;;;4996609;28;20231;-85
2021/03/19 04:25:56;;;;;;;14.07;8.60;;;1.80;92.40;;;;;;4994981;28;20207;-85
2021/03/19 04:28:26;;;;;;;14.23;9.53;;;1.80;92.10;;;;;;4985001;28;20253;-85
2021/03/19 04:30:54;;;;;;;12.40;8.90;;;1.80;92.00;;;;;;4992335;28;20204;-85
2021/03/19 04:33:23;;;;;;;13.57;8.73;;;1.80;92.20;;;;;;5002520;28;20235;-85
2021/03/19 04:35:55;;;;;;;14.43;8.90;;;1.70;92.10;;;;;;5000728;28;20631;-85
2021/03/19 04:38:21;;;;;;;11.33;8.07;;;1.80;92.20;;;;;;5003427;28;20545;-85
2021/03/19 04:40:48;;;;;;;12.27;8.77;;;1.90;92.10;;;;;;5001076;28;20230;-85
2021/03/19 04:43:16;;;;;;;12.73;8.93;;;2.00;92.10;;;;;;5002238;28;20228;-85
2021/03/19 04:45:45;;;;;;;13.30;9.53;;;1.80;91.80;;;;;;5000486;28;20339;-85
2021/03/19 04:48:13;;;;;;;13.90;9.10;;;1.70;91.70;;;;;;4984393;28;20256;-85
2021/03/19 04:50:40;;;;;;;13.63;9.20;;;1.80;92.40;;;;;;4984677;28;20209;-85
2021/03/19 04:53:06;;;;;;;12.73;8.83;;;1.80;92.30;;;;;;4983959;28;20240;-85
2021/03/19 04:55:33;;;;;;;12.50;8.50;;;1.90;91.70;;;;;;4983891;28;20208;-85
2021/03/19 04:58:00;;;;;;;12.93;8.47;;;1.80;92.00;;;;;;5001282;28;20876;-85
2021/03/19 05:00:26;;;;;;;13.20;8.83;;;1.90;92.20;;;;;;5003193;28;20237;-85
2021/03/19 05:02:53;;;;;;;12.10;8.20;;;1.90;92.00;;;;;;5002351;28;20235;-86
2021/03/19 05:05:23;;;;;;;12.60;9.07;;;1.80;92.20;;;;;;5002735;28;20306;-85
2021/03/19 05:07:50;;;;;;;13.47;8.40;;;1.90;92.10;;;;;;4989465;28;20228;-85
2021/03/19 05:10:19;;;;;;;13.03;8.80;;;1.80;92.20;;;;;;4983343;28;20294;-85
2021/03/19 05:12:45;;;;;;;14.10;8.93;;;1.80;92.20;;;;;;4991398;28;20385;-85
2021/03/19 05:15:13;;;;;;;12.10;8.13;;;1.90;92.40;;;;;;5003986;28;20199;-85
2021/03/19 05:17:39;;;;;;;14.00;9.17;;;1.80;92.10;;;;;;5004952;28;20241;-86
2021/03/19 05:20:10;;;;;;;13.63;9.40;;;1.80;92.20;;;;;;5003895;28;20255;-85
2021/03/19 05:22:37;;;;;;;15.03;9.07;;;1.80;92.40;;;;;;5003761;28;20206;-86
2021/03/19 05:25:06;;;;;;;13.93;9.40;;;1.80;92.20;;;;;;4984101;28;20203;-85
2021/03/19 05:27:32;;;;;;;13.33;9.50;;;1.90;92.50;;;;;;5002115;28;20278;-86
2021/03/19 05:29:59;;;;;;;14.87;9.30;;;1.80;92.70;;;;;;5003631;28;20269;-85
2021/03/19 05:32:26;;;;;;;11.97;8.90;;;1.90;92.40;;;;;;5002917;28;20295;-85
2021/03/19 05:34:53;;;;;;;13.17;9.50;;;1.90;92.50;;;;;;5002589;28;20220;-85
2021/03/19 05:37:20;;;;;;;12.70;9.23;;;1.90;92.20;;;;;;4994739;28;20279;-87
2021/03/19 05:39:48;;;;;;;15.50;9.60;;;2.00;92.10;;;;;;4997897;28;20292;-86
2021/03/19 05:42:19;;;;;;;13.27;9.40;;;2.10;91.90;;;;;;5000250;28;20290;-85
2021/03/19 05:44:46;;;;;;;13.50;8.97;;;2.00;91.70;;;;;;5000709;28;20294;-86
2021/03/19 05:47:13;;;;;;;15.50;9.43;;;2.10;91.50;;;;;;5003088;28;20206;-84
2021/03/19 05:49:40;;;;;;;12.40;8.90;;;2.00;91.60;;;;;;5002023;28;20228;-83
2021/03/19 05:52:22;;;;;;;13.57;8.63;;;2.10;91.40;;;;;;5000401;28;20218;-84
2021/03/19 05:54:50;;;;;;;13.77;8.97;;;2.10;91.30;;;;;;5000050;28;20234;-84
2021/03/19 05:57:23;;;;;;;13.20;8.87;;;2.00;91.20;;;;;;4985549;28;20214;-82
2021/03/19 05:59:52;;;;;;;12.47;8.63;;;2.20;91.00;;;;;;4981891;28;20235;-82
2021/03/19 06:02:25;;;;;;;11.03;8.00;;;2.10;91.00;;;;;;5001448;28;20218;-83
2021/03/19 06:05:12;;;;;;;13.53;9.17;;;2.10;91.00;;;;;;5001639;28;20228;-82
2021/03/19 06:07:45;;;;;;;13.40;8.83;;;2.10;91.20;;;;;;5001893;28;20215;-83
2021/03/19 06:10:34;;;;;;;13.80;8.93;;;2.10;90.90;;;;;;5000540;28;20246;-82
2021/03/19 06:13:18;;;;;;;11.63;8.70;;;2.10;90.90;;;;;;4981413;28;20254;-82
2021/03/19 06:15:46;;;;;;;14.23;10.53;;;2.20;90.70;;;;;;4985665;28;20207;-82
2021/03/19 06:18:29;;;;;;;13.73;8.93;;;2.20;90.50;;;;;;5000998;28;20380;-82
2021/03/19 06:21:02;;;;;;;14.20;9.13;;;2.20;90.40;;;;;;4999798;28;20219;-82
2021/03/19 06:23:29;;;;;;;14.00;10.00;;;2.20;90.70;;;;;;4996540;28;20573;-82
2021/03/19 06:26:02;;;;;;;13.93;9.40;;;2.30;90.70;;;;;;4981384;28;20214;-82
2021/03/19 06:28:32;;;;;;;12.83;8.83;;;2.30;90.60;;;;;;4981798;28;20241;-81
2021/03/19 06:31:14;;;;;;;14.53;10.30;;;2.30;90.20;;;;;;4982425;28;20212;-82
2021/03/19 06:33:41;;;;;;;13.70;8.53;;;2.30;90.40;;;;;;4998419;28;20227;-82
2021/03/19 06:36:12;;;;;;;13.87;9.03;;;2.30;90.30;;;;;;5001352;28;20266;-82
2021/03/19 06:38:40;;;;;;;12.93;8.93;;;2.30;90.80;;;;;;4981094;28;20637;-82
2021/03/19 06:41:22;;;;;;;13.00;9.00;;;2.30;90.90;;;;;;4980532;28;20228;-82
2021/03/19 06:43:50;;;;;;;14.90;8.93;;;2.50;90.50;;;;;;4995690;28;20238;-82
2021/03/19 06:46:20;;;;;;;15.13;8.77;;;2.70;89.40;;;;;;5000808;28;20234;-84
2021/03/19 06:49:00;;;;;;;12.93;9.20;;;2.80;88.20;;;;;;4983936;28;20254;-83
2021/03/19 06:51:30;;;;;;;11.40;8.63;;;2.90;88.10;;;;;;5002139;28;20198;-84
2021/03/19 06:57:20;;;;;;;14.87;9.00;;;3.00;87.70;;;;;;4994326;28;20214;-83
2021/03/19 06:59:51;;;;;;;13.80;9.23;;;3.00;87.70;;;;;;4982527;28;20243;-82
2021/03/19 07:05:49;;;;;;;12.73;9.20;;;3.00;87.80;;;;;;4995609;28;20234;-81
2021/03/19 07:08:34;;;;;;;12.33;8.30;;;3.10;87.80;;;;;;4978020;28;20219;-81
2021/03/19 07:11:22;;;;;;;12.67;8.37;;;3.10;87.80;;;;;;4981098;28;20643;-80
2021/03/19 07:14:02;;;;;;;12.40;8.47;;;3.20;87.90;;;;;;4993360;28;20227;-80
2021/03/19 07:16:40;;;;;;;13.47;8.70;;;3.30;87.90;;;;;;4997188;28;20199;-81
2021/03/19 07:19:19;;;;;;;12.23;8.10;;;3.50;88.00;;;;;;4998823;28;20294;-81
2021/03/19 07:21:58;;;;;;;14.07;8.87;;;3.70;84.80;;;;;;4978147;28;20256;-81
2021/03/19 07:31:24;;;;;;;14.30;8.70;;;4.50;80.10;;;;;;4975501;28;20181;-81
2021/03/19 07:34:06;;;;;;;11.70;8.53;;;4.70;78.90;;;;;;4974825;28;20231;-81
2021/03/19 07:37:12;;;;;;;12.50;9.23;;;4.70;79.70;;;;;;4975218;28;20712;-81
2021/03/19 07:43:33;;;;;;;14.33;10.17;;;4.50;79.30;;;;;;4992014;28;20246;-81
2021/03/19 07:49:38;;;;;;;12.27;8.53;;;4.60;77.00;;;;;;4936232;28;20223;-82
2021/03/19 07:52:21;;;;;;;11.63;8.67;;;4.30;77.20;;;;;;4981451;28;20200;-82
2021/03/19 07:54:52;;;;;;;12.20;9.13;;;4.10;78.90;;;;;;4995708;28;20242;-81
2021/03/19 07:57:25;;;;;;;13.23;9.30;;;4.10;79.30;;;;;;4998220;28;20196;-81
2021/03/19 08:00:02;;;;;;;15.43;10.00;;;4.10;80.00;;;;;;4996813;28;20207;-82
2021/03/19 08:02:58;;;;;;;13.53;9.63;;;4.00;80.80;;;;;;4999474;28;20199;-82
2021/03/19 08:05:30;;;;;;;17.23;10.20;;;4.10;81.60;;;;;;4999343;28;20231;-82
2021/03/19 08:08:15;;;;;;;12.87;9.97;;;4.00;79.80;;;;;;4997382;28;20219;-82
2021/03/19 08:14:20;;;;;;;13.17;10.20;;;4.30;77.40;;;;;;4998090;28;20282;-81
2021/03/19 08:16:54;;;;;;;12.80;9.97;;;4.30;78.60;;;;;;4983091;28;20205;-82
2021/03/19 08:19:28;;;;;;;13.43;9.57;;;4.50;76.60;;;;;;4959496;29;20567;-81
2021/03/19 08:22:06;;;;;;;12.50;9.57;;;4.70;75.50;;;;;;4942763;29;20231;-81
2021/03/19 08:28:01;;;;;;;15.13;9.63;;;5.20;73.60;;;;;;4985709;28;20271;-81
2021/03/19 08:30:39;;;;;;;15.50;10.33;;;5.00;72.70;;;;;;4979311;28;20196;-81
2021/03/19 08:33:17;;;;;;;13.43;10.13;;;4.80;75.90;;;;;;4979763;28;20270;-83
2021/03/19 08:35:51;;;;;;;15.33;9.97;;;4.60;77.80;;;;;;4979487;28;20709;-82
2021/03/19 08:38:28;;;;;;;16.70;10.47;;;4.70;78.10;;;;;;4971770;28;20301;-83
2021/03/19 08:40:59;;;;;;;13.47;9.90;;;4.80;78.00;;;;;;4958581;29;20739;-83
2021/03/19 08:43:30;;;;;;;14.73;10.00;;;4.80;75.20;;;;;;4961646;28;20420;-81
2021/03/19 08:46:02;;;;;;;14.23;9.90;;;4.70;77.10;;;;;;4978837;28;20569;-82
2021/03/19 08:48:29;;;;;;;14.47;10.40;;;4.70;78.10;;;;;;4978307;28;20311;-81
2021/03/19 08:51:13;;;;;;;14.87;10.70;;;4.80;77.60;;;;;;4978149;28;20242;-81
2021/03/19 08:54:07;;;;;;;14.87;11.27;;;5.10;76.80;;;;;;4977889;28;20237;-81
2021/03/19 08:56:34;;;;;;;16.50;10.80;;;5.10;75.20;;;;;;4977258;28;20268;-84
2021/03/19 08:59:00;;;;;;;15.53;10.93;;;5.40;73.50;;;;;;4975965;28;20236;-83
2021/03/19 09:01:47;;;;;;;14.43;11.00;;;5.50;74.10;;;;;;4977487;28;20235;-84
2021/03/19 09:04:14;;;;;;;14.90;10.87;;;5.50;70.30;;;;;;4977360;28;20315;-84
2021/03/19 09:07:22;;;;;;;11.83;9.57;;;5.80;70.60;;;;;;4978322;28;20368;-84
2021/03/19 09:09:50;;;;;;;13.30;9.93;;;5.90;70.70;;;;;;4971758;28;20220;-84
2021/03/19 09:12:23;;;;;;;13.80;10.27;;;5.80;70.60;;;;;;4961860;28;20193;-84
2021/03/19 09:14:53;;;;;;;13.90;9.93;;;5.90;71.30;;;;;;4956500;28;20236;-84
2021/03/19 09:18:05;;;;;;;13.63;10.37;;;5.70;70.40;;;;;;4969586;28;20197;-83
2021/03/19 09:20:55;;;;;;;17.07;10.70;;;5.50;71.80;;;;;;4976070;28;20228;-83
2021/03/19 09:23:28;;;;;;;11.20;9.33;;;5.80;71.10;;;;;;4974717;28;20225;-85
2021/03/19 09:26:16;;;;;;;11.77;8.63;;;5.90;68.40;;;;;;4978510;28;20193;-84
2021/03/19 09:29:21;;;;;;;11.03;8.67;;;6.10;70.60;;;;;;4976313;28;20317;-84
2021/03/19 09:31:50;;;;;;;11.67;8.93;;;6.20;64.60;;;;;;4958726;28;20209;-84
2021/03/19 09:41:32;;;;;;;13.50;10.27;;;5.20;70.00;;;;;;4980047;28;20199;-83
2021/03/19 09:44:00;;;;;;;15.77;10.67;;;5.20;74.20;;;;;;4974124;28;20230;-84
2021/03/19 09:50:05;;;;;;;13.93;10.47;;;5.40;74.00;;;;;;4957657;28;20759;-84
2021/03/19 09:52:41;;;;;;;13.57;10.47;;;5.40;75.80;;;;;;4957621;29;20189;-84
2021/03/19 09:55:20;;;;;;;13.97;10.13;;;5.30;75.90;;;;;;4958717;28;20209;-84
2021/03/19 10:01:25;;;;;;;12.50;9.30;;;4.70;78.80;;;;;;4963670;28;20623;-83
2021/03/19 10:07:15;;;;;;;12.43;8.50;;;4.30;80.00;;;;;;4962541;28;20282;-81
2021/03/19 10:09:45;;;;;;;12.17;8.90;;;4.10;80.70;;;;;;4956751;28;20722;-81
2021/03/19 10:12:15;;;;;;;11.43;7.93;;;3.80;84.50;;;;;;4957412;29;20201;-81
2021/03/19 10:14:43;;;;;;;12.50;9.20;;;3.80;84.20;;;;;;4956742;28;20234;-81
2021/03/19 10:17:26;;;;;;;12.00;9.37;;;3.90;84.30;;;;;;4969052;28;20223;-81
2021/03/19 10:19:58;;;;;;;11.63;8.60;;;4.00;83.40;;;;;;4960782;28;20276;-82
2021/03/19 10:22:31;;;;;;;12.57;8.30;;;4.20;82.00;;;;;;4965073;28;20224;-81
2021/03/19 10:28:25;;;;;;;10.67;8.57;;;4.60;78.50;;;;;;4975774;28;20255;-82
2021/03/19 10:30:54;;;;;;;10.97;8.27;;;4.70;82.30;;;;;;4974375;28;20239;-82
2021/03/19 10:33:24;;;;;;;11.27;9.00;;;4.70;80.30;;;;;;4964804;28;20265;-82
2021/03/19 10:35:58;;;;;;;9.30;6.73;;;4.70;80.30;;;;;;4967606;28;20236;-82
2021/03/19 10:38:33;;;;;;;9.33;7.37;;;4.90;75.90;;;;;;4964666;28;20225;-82
2021/03/19 10:41:02;;;;;;;9.57;8.07;;;5.20;75.60;;;;;;4967673;28;20235;-84
2021/03/19 10:46:55;;;;;;;11.60;8.63;;;5.40;75.40;;;;;;4960872;28;20233;-82
2021/03/19 10:49:37;;;;;;;11.17;8.23;;;5.50;74.10;;;;;;4956175;28;20235;-84
2021/03/19 10:52:11;;;;;;;10.17;8.40;;;5.80;75.40;;;;;;4965336;28;20205;-84
2021/03/19 10:54:42;;;;;;;11.20;7.97;;;6.70;71.50;;;;;;4981698;28;20251;-84
2021/03/19 10:57:15;;;;;;;10.15;7.72;;;7.20;69.50;;;;;;4979844;28;20676;-84
2021/03/19 11:05:58;;;;;;;9.35;7.63;;;7.80;58.30;;;;;;5277437;23;20239;-86
2021/03/19 11:08:25;;;;;;;10.50;8.13;;;8.20;60.50;;;;;;5000440;28;20231;-86
2021/03/19 11:10:53;;;;;;;8.98;7.70;;;8.90;54.00;;;;;;4998129;28;20195;-85
2021/03/19 11:13:29;;;;;;;9.88;8.73;;;9.60;49.20;;;;;;5021683;28;20223;-85
2021/03/19 11:15:58;;;;;;;10.18;8.40;;;9.40;49.10;;;;;;5004113;28;20235;-85
2021/03/19 11:18:29;;;;;;;9.32;8.20;;;9.10;47.90;;;;;;4982053;28;20232;-85
2021/03/19 11:20:58;;;;;;;10.32;8.27;;;8.40;49.30;;;;;;4988182;28;20225;-85
2021/03/19 11:23:34;;;;;;;11.18;9.25;;;7.40;50.70;;;;;;4979930;28;20766;-85
2021/03/19 11:26:13;;;;;;;12.40;9.45;;;6.80;54.40;;;;;;4999365;28;20615;-87
2021/03/19 11:32:08;;;;;;;11.10;9.17;;;5.70;68.10;;;;;;4998103;28;20167;-87
2021/03/19 11:34:41;;;;;;;14.37;9.90;;;5.80;67.80;;;;;;4998205;28;20235;-86
2021/03/19 11:37:17;;;;;;;11.73;9.27;;;5.90;71.20;;;;;;4998657;28;20206;-86
2021/03/19 11:39:55;;;;;;;10.73;9.20;;;6.10;67.20;;;;;;4998201;28;20721;-85
2021/03/19 11:42:24;;;;;;;12.30;10.00;;;6.20;66.90;;;;;;4994519;28;20223;-86
2021/03/19 11:44:53;;;;;;;10.60;9.37;;;6.30;62.30;;;;;;5000303;28;20322;-86
2021/03/19 11:47:24;;;;;;;10.70;9.60;;;6.20;60.50;;;;;;5002233;28;20196;-85
2021/03/19 11:49:53;;;;;;;10.27;8.60;;;6.30;62.10;;;;;;4999583;28;20314;-86
2021/03/19 11:52:21;;;;;;;10.23;8.33;;;6.80;56.40;;;;;;4991223;28;20200;-87
2021/03/19 11:54:48;;;;;;;10.43;7.90;;;7.30;60.20;;;;;;4984089;28;20239;-86
2021/03/19 11:57:15;;;;;;;9.07;8.13;;;7.40;57.60;;;;;;4988774;28;20242;-87
2021/03/19 11:59:41;;;;;;;11.10;7.73;;;7.30;54.10;;;;;;4982346;28;20229;-87
2021/03/19 12:02:25;;;;;;;11.33;8.77;;;7.40;53.90;;;;;;4984437;28;20217;-87
2021/03/19 12:04:51;;;;;;;11.13;8.77;;;7.10;52.50;;;;;;4985063;28;20264;-87
2021/03/19 12:11:01;;;;;;;12.53;7.90;;;6.70;56.20;;;;;;4966811;29;20220;-86
2021/03/19 12:17:39;;;;;;;11.17;9.40;;;6.90;60.60;;;;;;4962297;29;20241;-90
2021/03/19 12:20:06;;;;;;;11.80;9.27;;;7.10;57.70;;;;;;4961474;29;20287;-91
2021/03/19 12:22:32;;;;;;;11.03;8.97;;;6.60;56.50;;;;;;4960514;29;20231;-89
2021/03/19 12:24:59;;;;;;;10.90;8.77;;;6.30;59.30;;;;;;4961701;28;20215;-87
2021/03/19 12:27:26;;;;;;;11.73;8.63;;;6.20;58.00;;;;;;4961786;29;20186;-85
2021/03/19 12:29:53;;;;;;;9.47;7.30;;;6.10;55.10;;;;;;4962198;28;20244;-87
2021/03/19 12:32:19;;;;;;;10.83;6.87;;;6.80;53.70;;;;;;4972949;28;20287;-85
2021/03/19 12:34:46;;;;;;;8.67;7.27;;;7.40;50.70;;;;;;4969449;28;20696;-85
2021/03/19 12:37:12;;;;;;;12.03;7.97;;;7.90;46.70;;;;;;4970563;28;20201;-85
2021/03/19 12:39:39;;;;;;;10.23;8.50;;;7.50;50.10;;;;;;4983492;28;20244;-85
2021/03/19 12:42:06;;;;;;;13.63;8.53;;;7.40;51.50;;;;;;4982145;28;20229;-85
2021/03/19 12:44:33;;;;;;;13.83;8.10;;;6.80;50.50;;;;;;4982367;28;20236;-85
2021/03/19 12:47:00;;;;;;;11.47;7.63;;;6.50;52.20;;;;;;4978806;28;20291;-87
2021/03/19 12:49:27;;;;;;;8.43;6.47;;;6.30;53.80;;;;;;4978861;28;20699;-85
2021/03/19 12:52:28;;;;;;;7.87;6.03;;;6.10;51.10;;;;;;4979926;28;20204;-85
2021/03/19 12:54:55;;;;;;;8.57;6.33;;;5.60;51.40;;;;;;4983782;28;20266;-84
2021/03/19 12:57:21;;;;;;;13.80;6.93;;;5.50;53.70;;;;;;4985220;28;20319;-85
2021/03/19 12:59:49;;;;;;;11.53;6.33;;;5.60;54.50;;;;;;4976048;28;20676;-85
2021/03/19 13:02:15;;;;;;;9.47;6.47;;;5.50;52.60;;;;;;4973109;28;20249;-85
2021/03/19 13:04:41;;;;;;;8.83;6.17;;;5.80;54.60;;;;;;4965129;28;20229;-86
2021/03/19 13:07:08;;;;;;;13.53;7.27;;;5.90;53.10;;;;;;4964861;28;20205;-85
2021/03/19 13:09:36;;;;;;;9.43;7.10;;;6.00;52.80;;;;;;4963230;28;20232;-85
2021/03/19 13:12:03;;;;;;;11.27;8.60;;;5.90;52.30;;;;;;4964164;28;20301;-85
2021/03/19 13:14:30;;;;;;;11.97;8.30;;;5.90;56.10;;;;;;4964979;29;20237;-85
2021/03/19 13:16:58;;;;;;;12.00;8.70;;;5.90;53.50;;;;;;4964981;28;20201;-85
2021/03/19 13:19:25;;;;;;;9.50;7.50;;;5.90;55.50;;;;;;4962310;29;20229;-85
2021/03/19 13:21:52;;;;;;;7.93;6.40;;;6.00;53.30;;;;;;4962277;28;20235;-85
2021/03/19 13:24:18;;;;;;;10.23;7.07;;;6.00;48.90;;;;;;4964256;28;20229;-85
2021/03/19 13:26:45;;;;;;;12.37;7.10;;;6.00;49.90;;;;;;4966889;28;20622;-86
2021/03/19 13:29:11;;;;;;;10.97;7.43;;;6.30;53.10;;;;;;4990878;28;20283;-87
2021/03/19 13:31:39;;;;;;;10.57;7.33;;;5.90;56.80;;;;;;5001300;28;20310;-87
2021/03/19 13:34:07;;;;;;;13.57;8.30;;;6.00;57.90;;;;;;5002403;28;20232;-88
2021/03/19 13:36:33;;;;;;;10.40;8.17;;;6.00;58.50;;;;;;5001885;28;20235;-87
2021/03/19 13:39:00;;;;;;;12.40;8.07;;;6.20;59.10;;;;;;5000097;28;20293;-87
2021/03/19 13:41:26;;;;;;;10.03;7.70;;;6.10;57.80;;;;;;4999298;28;20600;-86
2021/03/19 13:43:53;;;;;;;9.10;7.20;;;6.20;56.70;;;;;;4977183;28;20726;-86
2021/03/19 13:46:20;;;;;;;10.13;6.67;;;6.20;57.30;;;;;;4962073;28;20347;-87
2021/03/19 13:48:46;;;;;;;8.63;7.10;;;6.50;55.30;;;;;;4969346;28;20228;-86
2021/03/19 13:51:14;;;;;;;10.33;7.10;;;7.10;54.70;;;;;;4980909;28;20272;-87
2021/03/19 13:53:41;;;;;;;9.50;6.83;;;7.30;51.90;;;;;;4982632;28;20240;-88
2021/03/19 13:59:30;;;;;;;9.87;7.77;;;7.30;51.10;;;;;;4978176;28;20219;-89
2021/03/19 14:01:57;;;;;;;11.07;7.67;;;6.60;53.80;;;;;;4979251;28;20705;-87
2021/03/19 14:04:23;;;;;;;10.00;7.80;;;6.10;58.50;;;;;;4967790;28;20732;-86
2021/03/19 14:10:15;;;;;;;10.73;8.00;;;5.70;63.30;;;;;;4962364;29;20594;-87
2021/03/19 14:12:41;;;;;;;8.83;7.37;;;5.80;64.10;;;;;;4982478;28;20621;-87
2021/03/19 14:15:10;;;;;;;8.80;7.43;;;6.20;61.90;;;;;;4994837;28;20230;-89
2021/03/19 14:20:59;;;;;;;11.13;6.97;;;6.60;55.80;;;;;;4961246;28;20272;-84
2021/03/19 14:24:03;;;;;;;8.20;6.10;;;6.70;54.80;;;;;;4972021;28;20221;-87
2021/03/19 14:26:30;;;;;;;6.07;4.83;;;6.60;50.50;;;;;;4960645;28;20193;-84
2021/03/19 14:28:57;;;;;;;7.53;5.73;;;6.80;50.60;;;;;;4956111;29;20232;-86
2021/03/19 14:31:28;;;;;;;8.47;5.40;;;6.80;50.80;;;;;;4965693;28;20352;-86
2021/03/19 14:44:04;;;;;;;6.90;5.33;;;6.30;52.90;;;;;;4954915;28;20680;-86
2021/03/19 14:46:44;;;;;;;6.33;5.57;;;6.30;51.90;;;;;;4957105;29;20201;-88
2021/03/19 14:49:11;;;;;;;8.57;5.87;;;6.10;55.00;;;;;;4958829;28;20220;-86
2021/03/19 14:51:38;;;;;;;7.03;6.33;;;5.50;65.50;;;;;;4976189;28;20210;-87